Time;durP1;ratioP1;P1;durP2;ratioP2;P2;SDS_P1;SDS_P2;PMS_P1;PMS_P2;Temp;Humidity;BMP_temperature;BMP_pressure;BME280_temperature;BME280_humidity;BME280_pressure;Samples;Min_cycle;Max_cycle;Signal;HPM_P1;HPM_P2
2024/01/10 00:02:13;;;;;;;58.65;24.55;;;;;;;1.26;56.43;95403.84;6111241;23;20009;-85
2024/01/10 00:04:39;;;;;;;53.63;23.45;;;;;;;1.22;56.61;95397.28;6159936;23;20035;-85
2024/01/10 00:07:05;;;;;;;56.85;23.48;;;;;;;1.31;57.14;95396.59;6111072;23;20012;-85
2024/01/10 00:09:30;;;;;;;54.72;23.98;;;;;;;1.38;57.20;95391.84;6111267;23;20005;-85
2024/01/10 00:11:55;;;;;;;54.83;24.30;;;;;;;1.21;57.83;95386.25;6135618;23;20013;-85
2024/01/10 00:14:21;;;;;;;56.80;24.88;;;;;;;1.41;57.25;95376.22;6135761;23;20005;-85
2024/01/10 00:16:46;;;;;;;60.17;25.30;;;;;;;1.45;56.95;95386.13;6158474;23;20023;-85
2024/01/10 00:19:12;;;;;;;57.08;23.98;;;;;;;1.42;57.53;95388.91;6158271;23;20004;-85
2024/01/10 00:21:40;;;;;;;57.97;24.35;;;;;;;1.44;57.09;95376.78;6158336;23;20021;-85
2024/01/10 00:24:06;;;;;;;55.70;23.63;;;;;;;1.53;56.15;95370.97;6158662;23;20005;-85
2024/01/10 00:26:34;;;;;;;61.65;26.02;;;;;;;1.19;56.74;95359.13;6159597;23;20059;-85
2024/01/10 00:28:59;;;;;;;57.72;24.45;;;;;;;1.21;56.28;95370.88;6160046;23;20021;-85
2024/01/10 00:31:25;;;;;;;61.63;24.42;;;;;;;0.65;57.13;95368.22;6135297;23;20064;-85
2024/01/10 00:33:50;;;;;;;58.53;24.25;;;;;;;0.93;57.06;95377.25;6159133;23;20009;-85
2024/01/10 00:36:16;;;;;;;58.53;24.05;;;;;;;0.54;57.58;95366.47;6135883;23;20091;-85
2024/01/10 00:38:41;;;;;;;62.50;25.23;;;;;;;0.16;59.19;95368.31;6160238;23;20019;-85
2024/01/10 00:41:07;;;;;;;60.33;24.45;;;;;;;0.45;58.82;95372.25;6110661;23;20012;-85
2024/01/10 00:43:32;;;;;;;60.03;24.55;;;;;;;0.34;59.15;95371.31;6134513;23;20009;-85
2024/01/10 00:46:00;;;;;;;55.97;24.00;;;;;;;0.64;57.74;95356.38;6185164;23;20005;-85
2024/01/10 00:48:25;;;;;;;61.22;25.42;;;;;;;0.87;58.01;95368.28;6160064;23;20089;-85
2024/01/10 00:50:51;;;;;;;58.70;24.90;;;;;;;1.10;57.24;95361.41;6135174;23;20112;-85
2024/01/10 00:53:17;;;;;;;59.63;23.52;;;;;;;0.94;57.39;95353.28;6110786;23;20005;-85
2024/01/10 00:55:47;;;;;;;57.17;23.67;;;;;;;1.03;56.68;95362.84;6111173;23;20005;-85
2024/01/10 00:58:13;;;;;;;59.73;24.13;;;;;;;1.07;56.61;95360.88;6135743;23;20009;-85
2024/01/10 01:00:38;;;;;;;58.78;24.40;;;;;;;0.97;57.12;95363.28;6184175;23;20095;-85
2024/01/10 01:03:04;;;;;;;55.45;23.20;;;;;;;1.00;57.18;95368.19;6134571;23;20013;-85
2024/01/10 01:05:30;;;;;;;56.22;23.88;;;;;;;1.00;56.73;95372.50;6159787;23;20011;-85
2024/01/10 01:07:58;;;;;;;59.83;23.88;;;;;;;0.98;56.35;95357.22;6135065;23;20013;-85
2024/01/10 01:10:24;;;;;;;58.35;23.88;;;;;;;1.16;56.26;95370.38;6133453;23;20005;-86
2024/01/10 01:12:49;;;;;;;56.97;24.10;;;;;;;1.21;56.31;95370.88;6133962;23;20020;-85
2024/01/10 01:15:17;;;;;;;52.53;23.58;;;;;;;1.20;56.63;95373.53;6110441;23;20055;-86
2024/01/10 01:17:43;;;;;;;55.78;23.13;;;;;;;1.02;56.54;95375.75;6183775;23;20005;-85
2024/01/10 01:22:34;;;;;;;55.97;23.65;;;;;;;1.17;55.76;95377.97;6214592;23;20017;-85
2024/01/10 01:24:59;;;;;;;54.63;23.85;;;;;;;0.53;57.00;95362.25;6139402;23;20000;-85
2024/01/10 01:27:27;;;;;;;54.83;22.52;;;;;;;0.75;56.49;95364.88;6164358;23;20008;-85
2024/01/10 01:29:52;;;;;;;51.83;23.38;;;;;;;0.60;56.29;95360.09;6140133;23;20009;-85
2024/01/10 01:32:18;;;;;;;57.20;23.60;;;;;;;0.38;57.51;95387.22;6139627;23;20013;-85
2024/01/10 01:34:43;;;;;;;52.05;22.23;;;;;;;0.63;56.48;95383.72;6164449;23;20008;-85
2024/01/10 01:37:09;;;;;;;56.60;23.30;;;;;;;0.49;56.73;95389.81;6164476;23;20013;-85
2024/01/10 01:39:34;;;;;;;54.70;23.17;;;;;;;0.82;56.32;95377.22;6139484;23;20111;-85
2024/01/10 01:42:00;;;;;;;53.40;22.85;;;;;;;0.75;56.18;95364.88;6188869;23;20105;-85
2024/01/10 01:44:25;;;;;;;57.20;23.80;;;;;;;0.74;56.09;95381.19;6139852;23;20008;-85
2024/01/10 01:46:51;;;;;;;51.85;22.23;;;;;;;0.52;56.31;95373.44;6163829;23;20004;-85
2024/01/10 01:49:17;;;;;;;56.05;22.60;;;;;;;0.58;56.67;95380.66;6188900;23;20015;-85
2024/01/10 01:51:44;;;;;;;53.17;22.42;;;;;;;0.60;56.68;95375.44;6164273;23;20019;-85
2024/01/10 01:54:14;;;;;;;52.50;22.50;;;;;;;0.62;56.29;95382.06;6163998;23;20080;-85
2024/01/10 01:56:42;;;;;;;54.05;22.02;;;;;;;0.91;56.04;95379.91;6188693;23;20015;-85
2024/01/10 01:59:08;;;;;;;56.45;23.65;;;;;;;0.88;55.75;95385.28;6185601;23;20044;-85
2024/01/10 02:01:34;;;;;;;54.22;22.20;;;;;;;0.94;55.31;95389.94;6188680;23;20008;-85
2024/01/10 02:04:01;;;;;;;55.63;22.23;;;;;;;0.48;56.69;95389.97;6189302;23;20082;-85
2024/01/10 02:06:26;;;;;;;52.72;22.35;;;;;;;0.24;56.62;95390.78;6188398;23;20000;-85
2024/01/10 02:08:52;;;;;;;63.92;24.50;;;;;;;-0.17;60.30;95396.25;6139158;23;20009;-84
2024/01/10 02:11:18;;;;;;;57.00;24.15;;;;;;;0.19;59.61;95388.56;6164541;23;20012;-85
2024/01/10 02:13:44;;;;;;;69.43;26.48;;;;;;;0.34;60.57;95386.66;6174973;23;20032;-84
2024/01/10 02:16:10;;;;;;;70.38;26.73;;;;;;;0.34;60.34;95383.25;6134161;23;20013;-85
2024/01/10 02:18:40;;;;;;;69.07;26.00;;;;;;;0.65;60.56;95394.66;6159063;23;20013;-85
2024/01/10 02:21:05;;;;;;;72.20;26.35;;;;;;;0.84;59.25;95389.00;6135192;23;20040;-85
2024/01/10 02:23:31;;;;;;;66.13;26.15;;;;;;;0.87;59.74;95391.31;6159060;23;20005;-85
2024/01/10 02:25:56;;;;;;;67.72;26.13;;;;;;;0.87;58.88;95383.63;6183278;23;20005;-85
2024/01/10 02:28:23;;;;;;;71.72;26.17;;;;;;;0.66;60.23;95386.03;6133463;23;20040;-85
2024/01/10 02:30:50;;;;;;;72.38;27.38;;;;;;;0.74;60.31;95383.75;6134263;23;20008;-85
2024/01/10 02:38:20;;;;;;;77.45;28.58;;;;;;;0.45;61.02;95362.03;6183900;23;20025;-85
2024/01/10 02:40:45;;;;;;;76.80;28.05;;;;;;;0.43;60.95;95376.66;6158818;23;20009;-85
2024/01/10 02:43:11;;;;;;;70.43;27.15;;;;;;;0.48;60.40;95361.81;6110233;23;20055;-85
2024/01/10 02:45:36;;;;;;;71.88;26.83;;;;;;;0.49;59.92;95368.53;6109854;23;20012;-85
2024/01/10 02:48:02;;;;;;;81.07;27.83;;;;;;;0.64;59.71;95375.09;6134040;23;20095;-85
2024/01/10 02:50:27;;;;;;;81.32;27.85;;;;;;;0.66;59.86;95364.75;6133831;23;20028;-85
2024/01/10 02:52:52;;;;;;;81.00;28.67;;;;;;;0.64;59.68;95367.41;6183342;23;19997;-85
2024/01/10 02:55:18;;;;;;;73.55;27.48;;;;;;;0.49;60.22;95383.91;6134058;23;20096;-86
2024/01/10 02:57:43;;;;;;;74.78;27.80;;;;;;;0.52;60.40;95370.88;6109574;23;20013;-85
2024/01/10 03:00:09;;;;;;;80.63;28.08;;;;;;;0.21;62.02;95378.22;6109704;23;20084;-85
2024/01/10 03:02:38;;;;;;;81.63;27.83;;;;;;;0.45;60.85;95378.19;6157967;23;20028;-85
2024/01/10 03:05:04;;;;;;;85.65;29.65;;;;;;;0.63;60.09;95354.72;6156761;23;20080;-85
2024/01/10 03:07:31;;;;;;;87.82;30.10;;;;;;;0.81;60.24;95373.03;6134036;23;20032;-85
2024/01/10 03:09:56;;;;;;;93.85;30.17;;;;;;;0.72;60.92;95370.25;6133638;23;20005;-85
2024/01/10 03:12:23;;;;;;;98.20;30.83;;;;;;;0.67;61.21;95377.44;6133775;23;20005;-85
2024/01/10 03:14:49;;;;;;;100.82;32.22;;;;;;;0.66;61.45;95375.78;6109478;23;20017;-85
2024/01/10 03:17:16;;;;;;;106.35;32.05;;;;;;;0.66;60.92;95359.63;6183555;23;20005;-85
2024/01/10 03:19:45;;;;;;;96.20;31.88;;;;;;;0.67;61.20;95353.59;6109663;23;20087;-85
2024/01/10 03:22:12;;;;;;;93.90;30.60;;;;;;;0.59;61.58;95356.69;6158770;23;20009;-85
2024/01/10 03:24:38;;;;;;;93.32;30.98;;;;;;;0.71;60.95;95372.91;6158036;23;20017;-85
2024/01/10 03:27:06;;;;;;;100.75;30.23;;;;;;;0.71;61.56;95376.28;6158326;23;20013;-85
2024/01/10 03:29:32;;;;;;;100.88;30.75;;;;;;;0.75;60.96;95380.25;6158571;23;20016;-85
2024/01/10 03:31:57;;;;;;;97.10;32.75;;;;;;;0.50;62.04;95386.34;6133052;23;20009;-85
2024/01/10 03:34:26;;;;;;;84.07;29.17;;;;;;;0.54;62.14;95386.94;6133521;23;20009;-85
2024/01/10 03:36:51;;;;;;;77.97;29.08;;;;;;;0.78;61.44;95381.75;6158086;23;20009;-85
2024/01/10 03:39:16;;;;;;;80.40;29.38;;;;;;;0.67;61.51;95381.75;6158256;23;20013;-85
2024/01/10 03:41:42;;;;;;;90.53;31.27;;;;;;;0.63;61.00;95383.72;6158305;23;20016;-85
2024/01/10 03:44:07;;;;;;;83.10;30.15;;;;;;;0.80;60.73;95389.31;6157989;23;20007;-85
2024/01/10 03:46:33;;;;;;;84.22;28.42;;;;;;;0.50;61.63;95393.22;6133647;23;20012;-85
2024/01/10 03:48:59;;;;;;;79.65;28.92;;;;;;;0.48;61.13;95379.72;6182921;23;20005;-85
2024/01/10 03:51:24;;;;;;;88.20;29.15;;;;;;;0.38;62.46;95392.34;6157978;23;20048;-85
2024/01/10 03:56:15;;;;;;;80.22;28.70;;;;;;;0.69;61.43;95385.81;6210500;23;20025;-85
2024/01/10 03:58:40;;;;;;;83.25;29.58;;;;;;;0.81;61.24;95396.09;6163027;23;20014;-85
2024/01/10 04:01:08;;;;;;;76.60;29.08;;;;;;;0.77;60.84;95386.06;6163483;23;20039;-85
2024/01/10 04:03:35;;;;;;;82.97;28.98;;;;;;;0.89;61.04;95386.91;6163571;23;20008;-85
2024/01/10 04:06:01;;;;;;;75.25;27.92;;;;;;;1.09;60.23;95402.53;6187574;23;20007;-85
2024/01/10 04:08:31;;;;;;;77.43;27.50;;;;;;;1.07;60.39;95389.03;6163182;23;20004;-85
2024/01/10 04:10:58;;;;;;;78.20;28.55;;;;;;;1.04;60.48;95396.94;6162944;23;20009;-85
2024/01/10 04:13:23;;;;;;;81.88;29.52;;;;;;;0.95;60.56;95393.31;6163415;23;20022;-85
2024/01/10 04:15:49;;;;;;;80.35;28.40;;;;;;;1.13;60.58;95404.75;6162670;23;20009;-85
2024/01/10 04:18:15;;;;;;;74.78;27.83;;;;;;;1.18;60.35;95406.94;6138473;23;20063;-85
2024/01/10 04:20:44;;;;;;;79.38;28.25;;;;;;;1.08;60.77;95406.03;6187325;23;20036;-85
2024/01/10 04:23:10;;;;;;;80.03;28.83;;;;;;;1.22;60.39;95407.53;6188281;23;20036;-85
2024/01/10 04:25:35;;;;;;;84.63;29.70;;;;;;;1.03;60.53;95406.38;6187205;23;20011;-85
2024/01/10 04:28:01;;;;;;;82.22;29.17;;;;;;;1.14;60.47;95410.69;6138011;23;20017;-85
2024/01/10 04:30:27;;;;;;;87.35;30.20;;;;;;;1.15;60.70;95415.69;6162939;23;20008;-85
2024/01/10 04:32:55;;;;;;;84.47;30.05;;;;;;;1.01;60.63;95400.56;6138008;23;20019;-85
2024/01/10 04:35:23;;;;;;;74.22;29.15;;;;;;;1.24;60.22;95413.38;6187888;23;20005;-85
2024/01/10 04:37:48;;;;;;;78.88;29.92;;;;;;;1.20;59.45;95406.84;6165136;23;20000;-85
2024/01/10 04:40:15;;;;;;;82.07;29.45;;;;;;;1.24;59.75;95416.75;6189688;23;20083;-85
2024/01/10 04:42:41;;;;;;;83.85;29.45;;;;;;;1.13;60.35;95404.75;6189551;23;20079;-85
2024/01/10 04:45:07;;;;;;;79.93;29.02;;;;;;;1.46;59.01;95405.69;6164894;23;20039;-85
2024/01/10 04:47:32;;;;;;;71.07;28.83;;;;;;;1.33;59.64;95416.06;6140063;23;20009;-85
2024/01/10 04:49:58;;;;;;;78.70;29.98;;;;;;;1.02;60.72;95409.84;6140266;23;20019;-84
2024/01/10 04:52:27;;;;;;;82.45;29.10;;;;;;;0.93;61.27;95402.84;6139645;23;20008;-85
2024/01/10 04:54:52;;;;;;;82.30;30.13;;;;;;;1.13;60.17;95407.31;6189192;23;20063;-85
2024/01/10 04:57:18;;;;;;;84.68;29.50;;;;;;;0.96;61.03;95400.88;6187274;23;20024;-85
2024/01/10 04:59:43;;;;;;;81.68;29.70;;;;;;;0.94;60.93;95405.31;6165175;23;20004;-84
2024/01/10 05:02:09;;;;;;;82.35;31.05;;;;;;;0.94;61.67;95404.50;6165215;23;20008;-85
2024/01/10 05:04:36;;;;;;;82.07;29.48;;;;;;;0.91;61.36;95391.91;6139980;23;20025;-85
2024/01/10 05:07:04;;;;;;;83.38;30.83;;;;;;;1.13;60.92;95407.31;6189127;23;20062;-85
2024/01/10 05:09:29;;;;;;;83.45;29.73;;;;;;;0.86;60.96;95396.56;6140683;23;20009;-85
2024/01/10 05:14:21;;;;;;;83.10;29.92;;;;;;;1.14;60.57;95398.72;6212343;23;20020;-85
2024/01/10 05:16:47;;;;;;;78.20;29.60;;;;;;;0.65;61.50;95399.78;6165054;23;20009;-86
2024/01/10 05:19:16;;;;;;;79.25;30.00;;;;;;;1.12;60.33;95392.03;6165149;23;20070;-85
2024/01/10 05:21:42;;;;;;;81.32;30.08;;;;;;;1.13;60.47;95384.25;6165330;23;20008;-85
2024/01/10 05:24:07;;;;;;;86.78;30.35;;;;;;;1.00;60.58;95383.53;6164690;23;20012;-85
2024/01/10 05:26:33;;;;;;;75.53;29.30;;;;;;;1.07;60.44;95394.16;6139724;23;20013;-85
2024/01/10 05:29:01;;;;;;;79.40;28.92;;;;;;;1.00;60.58;95388.66;6164639;23;20027;-85
2024/01/10 05:31:26;;;;;;;82.60;30.30;;;;;;;0.92;60.91;95384.13;6164593;23;20016;-84
2024/01/10 05:33:53;;;;;;;84.50;29.15;;;;;;;0.94;61.43;95399.38;6160943;23;20013;-85
2024/01/10 05:36:22;;;;;;;81.63;29.67;;;;;;;1.04;60.98;95400.31;6164185;23;20012;-85
2024/01/10 05:38:47;;;;;;;81.70;30.63;;;;;;;1.09;60.59;95398.22;6188471;23;20088;-85
2024/01/10 05:41:14;;;;;;;79.72;30.48;;;;;;;1.03;60.46;95391.00;6164425;23;20036;-85
2024/01/10 05:43:40;;;;;;;87.75;31.30;;;;;;;0.96;61.39;95392.38;6139913;23;20055;-85
2024/01/10 05:46:05;;;;;;;71.68;27.63;;;;;;;1.03;60.82;95378.19;6164236;23;20009;-85
2024/01/10 05:48:31;;;;;;;82.07;29.90;;;;;;;0.93;60.36;95382.38;6164293;23;20012;-85
2024/01/10 05:50:57;;;;;;;79.68;28.10;;;;;;;0.97;60.80;95391.44;6164212;23;20050;-85
2024/01/10 05:53:24;;;;;;;82.75;29.55;;;;;;;0.98;60.65;95395.66;6139227;23;20012;-85
2024/01/10 05:55:51;;;;;;;87.30;31.02;;;;;;;1.13;59.94;95394.50;6188807;23;20005;-85
2024/01/10 05:58:16;;;;;;;84.32;30.27;;;;;;;1.19;60.09;95397.53;6188683;23;20004;-85
2024/01/10 06:00:42;;;;;;;80.00;29.77;;;;;;;1.18;59.89;95401.81;6189468;23;20051;-85
2024/01/10 06:03:09;;;;;;;80.93;29.52;;;;;;;1.28;59.39;95392.53;6163633;23;20087;-85
2024/01/10 06:05:34;;;;;;;76.30;29.45;;;;;;;1.07;59.77;95397.53;6188539;23;20012;-85
2024/01/10 06:08:00;;;;;;;80.70;29.08;;;;;;;1.04;59.95;95397.75;6162616;23;20079;-85
2024/01/10 06:10:25;;;;;;;82.72;28.80;;;;;;;0.76;60.79;95399.81;6162362;23;20013;-85
2024/01/10 06:12:50;;;;;;;77.53;29.15;;;;;;;0.99;59.98;95407.53;6162613;23;20008;-85
2024/01/10 06:15:16;;;;;;;75.22;28.17;;;;;;;1.02;60.06;95406.47;6187282;23;20005;-85
2024/01/10 06:17:43;;;;;;;78.68;29.70;;;;;;;1.02;59.86;95406.47;6163792;23;20012;-85
2024/01/10 06:20:09;;;;;;;73.10;27.95;;;;;;;1.01;59.38;95403.13;6164173;23;20021;-85
2024/01/10 06:22:35;;;;;;;77.53;28.30;;;;;;;1.15;59.26;95418.25;6163616;23;20015;-85
2024/01/10 06:25:00;;;;;;;64.40;25.88;;;;;;;1.14;59.42;95423.50;6163341;23;20036;-85
2024/01/10 06:27:25;;;;;;;77.97;32.65;;;;;;;1.16;59.07;95414.78;6163722;23;20005;-85
2024/01/10 06:29:51;;;;;;;77.25;28.92;;;;;;;0.93;59.91;95423.34;6188351;23;20007;-85
2024/01/10 06:32:16;;;;;;;72.78;26.75;;;;;;;1.01;59.88;95420.22;6163537;23;20066;-85
2024/01/10 06:34:42;;;;;;;77.93;29.30;;;;;;;1.09;59.53;95423.03;6163208;23;20012;-85
2024/01/10 06:37:08;;;;;;;79.63;29.58;;;;;;;1.18;59.12;95427.44;6188180;23;20004;-85
2024/01/10 06:39:34;;;;;;;82.15;31.20;;;;;;;0.92;60.04;95424.28;6163710;23;20019;-85
2024/01/10 06:41:59;;;;;;;83.07;30.75;;;;;;;0.97;60.15;95429.84;6139164;23;20008;-85
2024/01/10 06:44:27;;;;;;;80.20;29.77;;;;;;;1.00;59.71;95416.84;6163844;23;20005;-85
2024/01/10 06:46:53;;;;;;;78.70;29.25;;;;;;;1.08;59.76;95426.50;6104943;23;20088;-86
2024/01/10 06:49:18;;;;;;;83.90;30.58;;;;;;;1.16;59.71;95426.75;6157005;23;20040;-85
2024/01/10 06:51:44;;;;;;;78.82;29.13;;;;;;;1.21;59.53;95421.28;6157318;23;20005;-85
2024/01/10 06:54:09;;;;;;;72.43;27.90;;;;;;;1.26;59.54;95437.16;6158421;23;20016;-85
2024/01/10 06:56:35;;;;;;;76.57;28.92;;;;;;;1.08;60.15;95426.50;6133384;23;20013;-85
2024/01/10 06:59:04;;;;;;;80.30;28.98;;;;;;;1.22;59.83;95428.03;6184198;23;20009;-85
2024/01/10 07:01:31;;;;;;;78.90;29.15;;;;;;;1.27;59.54;95447.25;6133503;23;20013;-85
2024/01/10 07:03:56;;;;;;;74.95;29.25;;;;;;;1.32;59.66;95437.50;6183051;23;20001;-85
2024/01/10 07:06:27;;;;;;;80.40;29.42;;;;;;;1.11;59.41;95428.84;6157309;23;20016;-86
2024/01/10 07:08:52;;;;;;;71.07;28.08;;;;;;;1.16;59.96;95430.16;6159161;23;20107;-86
2024/01/10 07:11:21;;;;;;;74.72;28.00;;;;;;;1.23;59.61;95433.06;6133370;23;20005;-85
2024/01/10 07:16:15;;;;;;;73.72;27.75;;;;;;;1.16;60.24;95442.97;6213647;23;20028;-85
2024/01/10 07:18:40;;;;;;;76.15;27.88;;;;;;;1.32;59.44;95444.38;6187717;23;20007;-85
2024/01/10 07:21:09;;;;;;;73.53;28.58;;;;;;;1.24;60.44;95452.63;6164118;23;20016;-86
2024/01/10 07:23:35;;;;;;;71.85;27.67;;;;;;;1.40;59.80;95443.78;6163150;23;20028;-85
2024/01/10 07:26:01;;;;;;;63.67;25.40;;;;;;;1.49;59.24;95441.34;6187951;23;20005;-85
2024/01/10 07:28:26;;;;;;;66.18;26.13;;;;;;;1.56;59.43;95452.78;6162885;23;20084;-85
2024/01/10 07:30:52;;;;;;;64.40;26.60;;;;;;;1.62;58.89;95453.22;6163037;23;20015;-86
2024/01/10 07:33:18;;;;;;;66.78;26.10;;;;;;;1.36;59.89;95451.69;6162623;23;20086;-85
2024/01/10 07:35:43;;;;;;;67.93;27.02;;;;;;;1.53;59.51;95458.13;6163191;23;20012;-85
2024/01/10 07:38:09;;;;;;;64.88;26.83;;;;;;;1.54;59.17;95452.06;6163709;23;20015;-85
2024/01/10 07:40:37;;;;;;;68.35;27.23;;;;;;;1.75;58.42;95467.56;6162668;23;20063;-86
2024/01/10 07:43:02;;;;;;;60.20;25.38;;;;;;;1.80;59.01;95474.91;6187515;23;20004;-85
2024/01/10 07:45:28;;;;;;;73.20;27.58;;;;;;;1.82;58.56;95470.47;6187627;23;20092;-86
2024/01/10 07:47:54;;;;;;;68.28;26.20;;;;;;;1.65;58.73;95471.75;6212794;23;20035;-85
2024/01/10 07:50:20;;;;;;;69.10;27.58;;;;;;;1.38;59.59;95461.84;6162957;23;20023;-85
2024/01/10 07:52:49;;;;;;;69.20;27.25;;;;;;;1.33;59.54;95456.25;6187495;23;20012;-86
2024/01/10 07:55:17;;;;;;;69.50;27.38;;;;;;;1.32;60.01;95460.56;6163929;23;20016;-85
2024/01/10 07:57:42;;;;;;;72.43;28.38;;;;;;;1.46;60.25;95464.63;6187697;23;20004;-85
2024/01/10 08:00:12;;;;;;;62.42;27.60;;;;;;;1.68;59.94;95483.53;6163202;23;20233;-85
2024/01/10 08:02:40;;;;;;;74.32;27.75;;;;;;;1.64;59.76;95482.13;6187438;23;20004;-85
2024/01/10 08:05:08;;;;;;;69.13;27.85;;;;;;;1.84;58.97;95465.22;6186798;23;20001;-85
2024/01/10 08:07:36;;;;;;;69.60;29.02;;;;;;;1.85;58.52;95475.38;6163240;23;20004;-85
2024/01/10 08:10:05;;;;;;;65.95;27.13;;;;;;;1.65;59.23;95465.81;6187897;23;20108;-85
2024/01/10 08:12:31;;;;;;;69.88;27.33;;;;;;;1.67;59.74;95480.16;6189161;23;20032;-85
2024/01/10 08:14:56;;;;;;;65.53;26.98;;;;;;;1.58;60.43;95480.03;6189171;23;20012;-85
2024/01/10 08:17:23;;;;;;;66.80;28.33;;;;;;;1.76;59.61;95479.44;6189418;23;20016;-86
2024/01/10 08:19:51;;;;;;;61.58;26.90;;;;;;;2.09;58.63;95482.09;6189423;23;20012;-85
2024/01/10 08:22:22;;;;;;;70.78;27.33;;;;;;;2.29;58.07;95485.69;6165035;23;20004;-85
2024/01/10 08:24:48;;;;;;;62.10;26.95;;;;;;;1.94;59.58;95481.53;6188606;23;20009;-85
2024/01/10 08:27:14;;;;;;;63.42;27.60;;;;;;;2.13;59.16;95479.19;6188996;23;20027;-86
2024/01/10 08:29:39;;;;;;;61.33;26.10;;;;;;;2.48;57.50;95488.44;6188999;23;20009;-85
2024/01/10 08:32:05;;;;;;;61.08;26.13;;;;;;;2.44;57.39;95471.66;6163930;23;20009;-85
2024/01/10 08:34:30;;;;;;;61.65;26.30;;;;;;;2.56;57.29;95482.72;6163297;23;20094;-85
2024/01/10 08:36:56;;;;;;;53.90;25.05;;;;;;;2.79;56.46;95488.56;6188718;23;20053;-85
2024/01/10 08:39:25;;;;;;;58.25;25.90;;;;;;;2.84;55.94;95481.31;6163726;23;20004;-85
2024/01/10 08:44:16;;;;;;;58.38;26.08;;;;;;;2.99;55.54;95492.13;6206157;23;20041;-85
2024/01/10 08:46:44;;;;;;;57.17;25.25;;;;;;;2.62;56.77;95489.91;6163488;23;20027;-85
2024/01/10 08:49:10;;;;;;;52.38;25.85;;;;;;;3.28;54.67;95476.09;6163338;23;20019;-85
2024/01/10 08:51:35;;;;;;;54.33;25.70;;;;;;;3.58;53.32;95469.31;6156110;23;20013;-85
2024/01/10 08:54:01;;;;;;;51.97;25.02;;;;;;;3.71;53.83;95486.19;6105103;23;20010;-85
2024/01/10 08:56:26;;;;;;;57.70;26.35;;;;;;;3.63;54.40;95468.00;6129055;23;20025;-84
2024/01/10 08:58:52;;;;;;;51.70;25.48;;;;;;;4.17;52.46;95486.63;6129602;23;20013;-85
2024/01/10 09:01:18;;;;;;;50.78;25.15;;;;;;;4.17;52.71;95481.47;6105070;23;20017;-86
2024/01/10 09:03:44;;;;;;;50.97;24.98;;;;;;;4.00;53.09;95469.22;6106069;23;20009;-86
2024/01/10 09:06:11;;;;;;;51.47;25.23;;;;;;;4.34;53.00;95489.50;6128484;23;20009;-85
2024/01/10 09:08:40;;;;;;;49.80;25.33;;;;;;;4.74;51.73;95493.75;6103857;23;20045;-86
2024/01/10 09:11:05;;;;;;;51.22;25.70;;;;;;;5.53;49.84;95490.19;6103754;23;20062;-85
2024/01/10 09:13:31;;;;;;;47.78;24.30;;;;;;;6.09;47.55;95488.53;6105341;23;20114;-86
2024/01/10 09:15:57;;;;;;;49.97;25.27;;;;;;;6.54;46.26;95487.75;6128190;23;20005;-85
2024/01/10 09:18:22;;;;;;;49.17;25.35;;;;;;;6.39;47.36;95502.91;6129206;23;20084;-87
2024/01/10 09:20:50;;;;;;;45.05;24.50;;;;;;;7.02;45.67;95510.66;6129057;23;20016;-86
2024/01/10 09:23:19;;;;;;;47.20;24.88;;;;;;;6.61;45.71;95496.53;6104837;23;20009;-86
2024/01/10 09:25:44;;;;;;;41.83;22.83;;;;;;;6.75;46.42;95497.81;6105621;23;20033;-85
2024/01/10 09:30:45;;;;;;;44.40;24.35;;;;;;;7.14;44.14;95507.84;6213662;22;20021;-83
2024/01/10 09:33:10;;;;;;;47.35;23.90;;;;;;;6.83;44.96;95510.78;6163069;23;20014;-84
2024/01/10 09:35:36;;;;;;;43.53;24.40;;;;;;;6.55;46.29;95521.19;6187996;23;20031;-84
2024/01/10 09:38:02;;;;;;;41.40;24.17;;;;;;;6.97;45.37;95523.22;6163616;23;20055;-84
2024/01/10 09:40:31;;;;;;;42.00;24.25;;;;;;;6.81;45.41;95528.22;6163012;23;20043;-84
2024/01/10 09:42:57;;;;;;;40.35;22.77;;;;;;;6.91;46.34;95531.59;6162788;23;20013;-84
2024/01/10 09:45:26;;;;;;;41.72;23.20;;;;;;;7.13;44.78;95526.91;6137050;23;20015;-84
2024/01/10 09:47:56;;;;;;;39.75;23.30;;;;;;;7.51;43.82;95530.94;6186684;23;20004;-84
2024/01/10 09:50:23;;;;;;;41.72;23.73;;;;;;;7.37;44.94;95540.06;6186945;23;20009;-84
2024/01/10 09:52:48;;;;;;;40.42;23.90;;;;;;;7.69;44.47;95530.91;6162836;23;20058;-84
2024/01/10 09:55:16;;;;;;;41.55;23.13;;;;;;;8.20;42.31;95538.81;6187983;23;20008;-84
2024/01/10 09:57:42;;;;;;;39.75;23.20;;;;;;;7.56;44.77;95541.66;6188569;23;20004;-84
2024/01/10 10:00:11;;;;;;;40.22;23.90;;;;;;;7.48;43.46;95530.44;6187235;23;20008;-84
2024/01/10 10:02:39;;;;;;;40.58;24.60;;;;;;;7.57;43.83;95530.34;6187539;23;20009;-84
2024/01/10 10:05:13;;;;;;;39.47;24.08;;;;;;;7.50;44.68;95534.50;6162538;23;20142;-84
2024/01/10 10:07:49;;;;;;;40.17;24.15;;;;;;;7.48;44.51;95535.59;6163580;23;20016;-83
2024/01/10 10:10:15;;;;;;;44.05;24.80;;;;;;;7.49;44.40;95526.88;6187411;23;20011;-84
2024/01/10 10:12:52;;;;;;;41.83;25.55;;;;;;;7.54;43.85;95529.81;6188608;23;20011;-84
2024/01/10 10:15:21;;;;;;;41.78;24.52;;;;;;;7.23;45.23;95518.13;6162898;23;20068;-84
2024/01/10 10:17:48;;;;;;;42.75;24.25;;;;;;;7.42;45.09;95522.31;6163406;23;20020;-84
2024/01/10 10:20:27;;;;;;;42.90;24.58;;;;;;;7.31;44.92;95530.31;6188023;23;20012;-84
2024/01/10 10:23:00;;;;;;;43.72;25.33;;;;;;;7.41;44.78;95523.28;6162802;23;20064;-84
2024/01/10 10:25:50;;;;;;;44.70;25.90;;;;;;;6.94;45.82;95523.50;6187603;23;20055;-84
2024/01/10 10:28:15;;;;;;;44.97;25.33;;;;;;;6.89;46.01;95510.19;6186625;23;20032;-83
2024/01/10 10:30:41;;;;;;;43.10;25.30;;;;;;;6.93;46.44;95521.91;6155981;23;20029;-83
2024/01/10 10:33:09;;;;;;;43.08;25.52;;;;;;;7.29;45.53;95523.66;6157357;23;20079;-84
2024/01/10 10:35:34;;;;;;;43.90;25.02;;;;;;;7.86;43.51;95531.00;6157669;23;20046;-84
2024/01/10 10:38:00;;;;;;;42.20;24.35;;;;;;;7.48;44.36;95514.91;6132108;23;20080;-84
2024/01/10 10:40:25;;;;;;;42.05;24.02;;;;;;;7.03;45.40;95521.81;6180835;23;20005;-84
2024/01/10 10:42:57;;;;;;;43.33;24.33;;;;;;;6.15;47.38;95521.50;6157656;23;20077;-84
2024/01/10 10:45:26;;;;;;;46.60;25.42;;;;;;;6.54;46.87;95519.56;6182126;23;20011;-83
2024/01/10 10:48:20;;;;;;;41.17;23.58;;;;;;;6.06;48.13;95502.53;6181855;23;20039;-84
2024/01/10 10:50:57;;;;;;;39.22;22.55;;;;;;;6.40;47.52;95518.28;6182140;23;20091;-84
2024/01/10 10:53:25;;;;;;;40.88;23.40;;;;;;;6.16;46.78;95497.31;6181524;23;20062;-84
2024/01/10 10:55:51;;;;;;;39.35;22.70;;;;;;;6.79;46.93;95520.63;6182090;23;20001;-84
2024/01/10 10:58:19;;;;;;;40.63;22.63;;;;;;;6.37;48.35;95510.81;6157396;23;20096;-84
2024/01/10 11:00:47;;;;;;;39.28;22.38;;;;;;;6.73;46.88;95520.41;6132513;23;20009;-84
2024/01/10 11:03:13;;;;;;;38.28;21.90;;;;;;;6.41;47.48;95519.09;6157290;23;20020;-84
2024/01/10 11:05:41;;;;;;;42.13;22.85;;;;;;;6.22;47.21;95509.66;6156726;23;20040;-84
2024/01/10 11:08:11;;;;;;;43.38;22.20;;;;;;;6.28;47.34;95506.50;6157444;23;20017;-84
2024/01/10 11:10:39;;;;;;;41.83;22.55;;;;;;;6.29;47.62;95489.25;6182378;23;20084;-84
2024/01/10 11:13:23;;;;;;;41.35;22.77;;;;;;;6.63;47.37;95500.59;6181722;23;20005;-83
2024/01/10 11:16:03;;;;;;;39.22;22.17;;;;;;;6.62;46.99;95501.53;6181566;23;20009;-84
2024/01/10 11:18:52;;;;;;;41.83;22.83;;;;;;;6.28;47.31;95493.59;6181668;23;20008;-84
2024/01/10 11:21:48;;;;;;;37.13;20.35;;;;;;;5.99;47.83;95486.78;6170917;23;20008;-84
2024/01/10 11:24:14;;;;;;;39.33;21.65;;;;;;;6.27;47.32;95494.56;6180491;23;20080;-84
2024/01/10 11:26:41;;;;;;;43.22;22.25;;;;;;;6.09;47.41;95494.50;6156519;23;20036;-84
2024/01/10 11:29:06;;;;;;;42.78;22.45;;;;;;;6.14;47.67;95494.88;6155889;23;20020;-84
2024/01/10 11:31:32;;;;;;;42.80;22.83;;;;;;;5.76;47.84;95493.25;6155772;23;20029;-84
2024/01/10 11:34:00;;;;;;;40.95;22.67;;;;;;;5.27;49.35;95493.34;6156515;23;20041;-83
2024/01/10 11:36:26;;;;;;;41.67;23.23;;;;;;;5.11;49.66;95498.25;6180996;23;20001;-84
2024/01/10 11:38:53;;;;;;;42.20;22.65;;;;;;;5.03;50.61;95488.63;6181216;23;20083;-84
2024/01/10 11:41:37;;;;;;;43.13;22.25;;;;;;;4.75;51.02;95488.47;6180714;23;20013;-84
2024/01/10 11:44:09;;;;;;;41.45;22.42;;;;;;;5.16;50.38;95478.84;6181649;23;20080;-84